sensor_id;sensor_type;location;lat;lon;timestamp;P1;durP1;ratioP1;P2;durP2;ratioP2
26474;SDS011;14161;52.270;10.334;2022-11-18T00:02:04;8.43;;;6.90;;
26474;SDS011;14161;52.270;10.334;2022-11-18T00:04:30;9.55;;;6.93;;
26474;SDS011;14161;52.270;10.334;2022-11-18T00:06:55;7.57;;;6.25;;
26474;SDS011;14161;52.270;10.334;2022-11-18T00:09:21;9.25;;;7.25;;
26474;SDS011;14161;52.270;10.334;2022-11-18T00:11:46;10.02;;;7.05;;
26474;SDS011;14161;52.270;10.334;2022-11-18T00:14:30;8.77;;;6.88;;
26474;SDS011;14161;52.270;10.334;2022-11-18T00:17:00;9.80;;;7.40;;
26474;SDS011;14161;52.270;10.334;2022-11-18T00:19:27;9.77;;;6.72;;
26474;SDS011;14161;52.270;10.334;2022-11-18T00:21:54;8.18;;;6.32;;
26474;SDS011;14161;52.270;10.334;2022-11-18T00:24:20;9.25;;;6.88;;
26474;SDS011;14161;52.270;10.334;2022-11-18T00:26:46;9.73;;;6.93;;
26474;SDS011;14161;52.270;10.334;2022-11-18T00:29:11;8.15;;;6.60;;
26474;SDS011;14161;52.270;10.334;2022-11-18T00:31:37;9.52;;;7.35;;
26474;SDS011;14161;52.270;10.334;2022-11-18T00:34:02;10.25;;;6.85;;
26474;SDS011;14161;52.270;10.334;2022-11-18T00:36:28;10.95;;;7.60;;
26474;SDS011;14161;52.270;10.334;2022-11-18T00:38:54;9.68;;;6.95;;
26474;SDS011;14161;52.270;10.334;2022-11-18T00:41:19;9.57;;;6.30;;
26474;SDS011;14161;52.270;10.334;2022-11-18T00:43:51;8.27;;;6.60;;
26474;SDS011;14161;52.270;10.334;2022-11-18T00:46:16;10.82;;;7.28;;
26474;SDS011;14161;52.270;10.334;2022-11-18T00:48:42;9.00;;;6.57;;
26474;SDS011;14161;52.270;10.334;2022-11-18T00:51:12;7.68;;;5.90;;
26474;SDS011;14161;52.270;10.334;2022-11-18T00:53:39;8.02;;;6.07;;
26474;SDS011;14161;52.270;10.334;2022-11-18T00:56:05;7.15;;;6.07;;
26474;SDS011;14161;52.270;10.334;2022-11-18T00:58:31;8.52;;;6.82;;
26474;SDS011;14161;52.270;10.334;2022-11-18T01:00:56;9.43;;;6.72;;
26474;SDS011;14161;52.270;10.334;2022-11-18T01:03:22;8.05;;;6.22;;
26474;SDS011;14161;52.270;10.334;2022-11-18T01:05:49;10.25;;;6.22;;
26474;SDS011;14161;52.270;10.334;2022-11-18T01:08:15;9.88;;;7.22;;
26474;SDS011;14161;52.270;10.334;2022-11-18T01:10:45;8.63;;;6.63;;
26474;SDS011;14161;52.270;10.334;2022-11-18T01:13:14;8.57;;;6.20;;
26474;SDS011;14161;52.270;10.334;2022-11-18T01:15:47;8.80;;;6.60;;
26474;SDS011;14161;52.270;10.334;2022-11-18T01:18:15;8.95;;;7.00;;
26474;SDS011;14161;52.270;10.334;2022-11-18T01:20:41;10.75;;;6.60;;
26474;SDS011;14161;52.270;10.334;2022-11-18T01:23:07;8.35;;;5.95;;
26474;SDS011;14161;52.270;10.334;2022-11-18T01:25:34;8.63;;;6.55;;
26474;SDS011;14161;52.270;10.334;2022-11-18T01:28:01;7.22;;;5.70;;
26474;SDS011;14161;52.270;10.334;2022-11-18T01:30:26;8.90;;;6.32;;
26474;SDS011;14161;52.270;10.334;2022-11-18T01:32:52;9.85;;;6.35;;
26474;SDS011;14161;52.270;10.334;2022-11-18T01:35:17;8.18;;;5.97;;
26474;SDS011;14161;52.270;10.334;2022-11-18T01:37:43;7.95;;;6.03;;
26474;SDS011;14161;52.270;10.334;2022-11-18T01:40:09;6.55;;;5.25;;
26474;SDS011;14161;52.270;10.334;2022-11-18T01:42:34;8.00;;;5.63;;
26474;SDS011;14161;52.270;10.334;2022-11-18T01:47:51;7.30;;;5.40;;
26474;SDS011;14161;52.270;10.334;2022-11-18T01:50:20;6.78;;;5.32;;
26474;SDS011;14161;52.270;10.334;2022-11-18T01:52:46;7.97;;;5.65;;
26474;SDS011;14161;52.270;10.334;2022-11-18T01:55:12;7.40;;;5.47;;
26474;SDS011;14161;52.270;10.334;2022-11-18T01:57:40;7.00;;;5.60;;
26474;SDS011;14161;52.270;10.334;2022-11-18T02:00:06;7.60;;;6.00;;
26474;SDS011;14161;52.270;10.334;2022-11-18T02:02:33;6.95;;;5.85;;
26474;SDS011;14161;52.270;10.334;2022-11-18T02:05:01;8.43;;;6.15;;
26474;SDS011;14161;52.270;10.334;2022-11-18T02:07:27;7.85;;;6.18;;
26474;SDS011;14161;52.270;10.334;2022-11-18T02:09:52;7.63;;;5.82;;
26474;SDS011;14161;52.270;10.334;2022-11-18T02:12:19;8.18;;;6.35;;
26474;SDS011;14161;52.270;10.334;2022-11-18T02:14:45;7.85;;;5.85;;
26474;SDS011;14161;52.270;10.334;2022-11-18T02:30:48;9.65;;;6.60;;
26474;SDS011;14161;52.270;10.334;2022-11-18T02:33:21;9.05;;;6.70;;
26474;SDS011;14161;52.270;10.334;2022-11-18T02:35:55;8.70;;;6.28;;
26474;SDS011;14161;52.270;10.334;2022-11-18T02:38:36;9.55;;;6.45;;
26474;SDS011;14161;52.270;10.334;2022-11-18T02:41:07;10.20;;;7.30;;
26474;SDS011;14161;52.270;10.334;2022-11-18T02:46:10;9.63;;;7.25;;
26474;SDS011;14161;52.270;10.334;2022-11-18T02:48:40;10.35;;;7.25;;
26474;SDS011;14161;52.270;10.334;2022-11-18T02:51:09;10.02;;;7.15;;
26474;SDS011;14161;52.270;10.334;2022-11-18T02:53:37;10.52;;;7.78;;
26474;SDS011;14161;52.270;10.334;2022-11-18T02:56:04;12.25;;;7.13;;
26474;SDS011;14161;52.270;10.334;2022-11-18T02:58:31;10.15;;;7.43;;
26474;SDS011;14161;52.270;10.334;2022-11-18T03:00:57;11.00;;;7.70;;
26474;SDS011;14161;52.270;10.334;2022-11-18T03:03:28;12.80;;;8.43;;
26474;SDS011;14161;52.270;10.334;2022-11-18T03:06:01;10.02;;;7.78;;
26474;SDS011;14161;52.270;10.334;2022-11-18T03:08:51;10.55;;;7.43;;
26474;SDS011;14161;52.270;10.334;2022-11-18T03:14:14;10.55;;;7.47;;
26474;SDS011;14161;52.270;10.334;2022-11-18T03:19:17;10.00;;;6.95;;
26474;SDS011;14161;52.270;10.334;2022-11-18T03:21:51;12.60;;;9.10;;
26474;SDS011;14161;52.270;10.334;2022-11-18T03:24:41;11.25;;;8.52;;
26474;SDS011;14161;52.270;10.334;2022-11-18T03:29:51;10.93;;;8.25;;
26474;SDS011;14161;52.270;10.334;2022-11-18T03:32:22;14.57;;;9.90;;
26474;SDS011;14161;52.270;10.334;2022-11-18T03:34:56;12.57;;;8.98;;
26474;SDS011;14161;52.270;10.334;2022-11-18T03:37:24;13.15;;;9.30;;
26474;SDS011;14161;52.270;10.334;2022-11-18T03:39:51;12.80;;;8.75;;
26474;SDS011;14161;52.270;10.334;2022-11-18T03:42:20;13.02;;;9.55;;
26474;SDS011;14161;52.270;10.334;2022-11-18T03:44:51;16.95;;;10.55;;
26474;SDS011;14161;52.270;10.334;2022-11-18T03:47:23;15.90;;;10.93;;
26474;SDS011;14161;52.270;10.334;2022-11-18T03:49:56;14.35;;;10.52;;
26474;SDS011;14161;52.270;10.334;2022-11-18T03:52:27;14.05;;;9.10;;
26474;SDS011;14161;52.270;10.334;2022-11-18T03:54:55;18.02;;;12.73;;
26474;SDS011;14161;52.270;10.334;2022-11-18T03:57:26;17.00;;;11.00;;
26474;SDS011;14161;52.270;10.334;2022-11-18T04:00:04;15.10;;;9.93;;
26474;SDS011;14161;52.270;10.334;2022-11-18T04:02:31;12.80;;;9.32;;
26474;SDS011;14161;52.270;10.334;2022-11-18T04:04:57;18.70;;;10.68;;
26474;SDS011;14161;52.270;10.334;2022-11-18T04:12:48;22.25;;;12.85;;
26474;SDS011;14161;52.270;10.334;2022-11-18T04:15:19;14.45;;;10.55;;
26474;SDS011;14161;52.270;10.334;2022-11-18T04:17:44;17.08;;;11.27;;
26474;SDS011;14161;52.270;10.334;2022-11-18T04:20:17;13.43;;;9.27;;
26474;SDS011;14161;52.270;10.334;2022-11-18T04:25:10;15.43;;;9.98;;
26474;SDS011;14161;52.270;10.334;2022-11-18T04:27:35;13.23;;;9.00;;
26474;SDS011;14161;52.270;10.334;2022-11-18T04:30:01;18.25;;;11.85;;
26474;SDS011;14161;52.270;10.334;2022-11-18T04:32:27;16.27;;;11.10;;
26474;SDS011;14161;52.270;10.334;2022-11-18T04:34:52;19.63;;;12.95;;
26474;SDS011;14161;52.270;10.334;2022-11-18T04:37:18;16.25;;;10.70;;
26474;SDS011;14161;52.270;10.334;2022-11-18T04:39:43;17.17;;;12.00;;
26474;SDS011;14161;52.270;10.334;2022-11-18T04:42:09;14.25;;;9.88;;
26474;SDS011;14161;52.270;10.334;2022-11-18T04:44:34;15.98;;;10.02;;
26474;SDS011;14161;52.270;10.334;2022-11-18T04:47:01;17.52;;;11.13;;
26474;SDS011;14161;52.270;10.334;2022-11-18T04:49:28;17.48;;;10.88;;
26474;SDS011;14161;52.270;10.334;2022-11-18T04:51:54;16.20;;;10.27;;
26474;SDS011;14161;52.270;10.334;2022-11-18T04:54:20;19.38;;;12.63;;
26474;SDS011;14161;52.270;10.334;2022-11-18T04:56:46;19.10;;;11.93;;
26474;SDS011;14161;52.270;10.334;2022-11-18T04:59:12;18.73;;;12.02;;
26474;SDS011;14161;52.270;10.334;2022-11-18T05:01:38;19.20;;;11.48;;
26474;SDS011;14161;52.270;10.334;2022-11-18T05:04:05;14.57;;;9.90;;
26474;SDS011;14161;52.270;10.334;2022-11-18T05:06:30;16.15;;;10.50;;
26474;SDS011;14161;52.270;10.334;2022-11-18T05:08:57;14.13;;;9.18;;
26474;SDS011;14161;52.270;10.334;2022-11-18T05:11:23;16.48;;;10.82;;
26474;SDS011;14161;52.270;10.334;2022-11-18T05:14:07;15.15;;;9.35;;
26474;SDS011;14161;52.270;10.334;2022-11-18T05:16:33;16.77;;;11.35;;
26474;SDS011;14161;52.270;10.334;2022-11-18T05:19:00;16.50;;;11.40;;
26474;SDS011;14161;52.270;10.334;2022-11-18T05:21:26;17.25;;;10.75;;
26474;SDS011;14161;52.270;10.334;2022-11-18T05:23:51;14.95;;;9.63;;
26474;SDS011;14161;52.270;10.334;2022-11-18T05:26:17;14.00;;;9.70;;
26474;SDS011;14161;52.270;10.334;2022-11-18T05:28:42;16.33;;;11.88;;
26474;SDS011;14161;52.270;10.334;2022-11-18T05:33:35;15.32;;;10.55;;
26474;SDS011;14161;52.270;10.334;2022-11-18T05:36:04;18.05;;;12.13;;
26474;SDS011;14161;52.270;10.334;2022-11-18T05:38:31;13.27;;;9.65;;
26474;SDS011;14161;52.270;10.334;2022-11-18T05:40:57;15.15;;;9.43;;
26474;SDS011;14161;52.270;10.334;2022-11-18T05:43:22;13.32;;;9.68;;
26474;SDS011;14161;52.270;10.334;2022-11-18T05:45:48;16.83;;;10.85;;
26474;SDS011;14161;52.270;10.334;2022-11-18T05:48:15;15.32;;;10.45;;
26474;SDS011;14161;52.270;10.334;2022-11-18T05:50:40;14.23;;;10.25;;
26474;SDS011;14161;52.270;10.334;2022-11-18T05:53:06;14.73;;;10.18;;
26474;SDS011;14161;52.270;10.334;2022-11-18T05:55:37;13.68;;;9.57;;
26474;SDS011;14161;52.270;10.334;2022-11-18T05:58:05;16.25;;;10.43;;
26474;SDS011;14161;52.270;10.334;2022-11-18T06:00:30;16.30;;;10.50;;
26474;SDS011;14161;52.270;10.334;2022-11-18T06:02:56;17.90;;;11.73;;
26474;SDS011;14161;52.270;10.334;2022-11-18T06:05:22;16.80;;;10.52;;
26474;SDS011;14161;52.270;10.334;2022-11-18T06:07:48;18.67;;;12.27;;
26474;SDS011;14161;52.270;10.334;2022-11-18T06:10:21;14.52;;;10.00;;
26474;SDS011;14161;52.270;10.334;2022-11-18T06:12:51;17.52;;;11.15;;
26474;SDS011;14161;52.270;10.334;2022-11-18T06:15:21;16.48;;;10.82;;
26474;SDS011;14161;52.270;10.334;2022-11-18T06:17:50;15.20;;;10.32;;
26474;SDS011;14161;52.270;10.334;2022-11-18T06:20:19;16.55;;;10.75;;
26474;SDS011;14161;52.270;10.334;2022-11-18T06:22:45;15.52;;;9.60;;
26474;SDS011;14161;52.270;10.334;2022-11-18T06:25:12;14.63;;;9.80;;
26474;SDS011;14161;52.270;10.334;2022-11-18T06:27:38;17.77;;;11.60;;
26474;SDS011;14161;52.270;10.334;2022-11-18T06:30:03;16.55;;;9.85;;
26474;SDS011;14161;52.270;10.334;2022-11-18T06:32:29;18.02;;;11.38;;
26474;SDS011;14161;52.270;10.334;2022-11-18T06:34:55;16.95;;;10.82;;
26474;SDS011;14161;52.270;10.334;2022-11-18T06:37:20;13.70;;;8.93;;
26474;SDS011;14161;52.270;10.334;2022-11-18T06:39:46;16.55;;;10.60;;
26474;SDS011;14161;52.270;10.334;2022-11-18T06:42:11;16.38;;;10.32;;
26474;SDS011;14161;52.270;10.334;2022-11-18T06:44:57;14.80;;;9.80;;
26474;SDS011;14161;52.270;10.334;2022-11-18T06:47:22;14.18;;;9.85;;
26474;SDS011;14161;52.270;10.334;2022-11-18T06:49:48;16.38;;;10.20;;
26474;SDS011;14161;52.270;10.334;2022-11-18T06:52:13;17.65;;;10.30;;
26474;SDS011;14161;52.270;10.334;2022-11-18T06:54:39;15.90;;;10.43;;
26474;SDS011;14161;52.270;10.334;2022-11-18T06:57:04;16.42;;;11.32;;
26474;SDS011;14161;52.270;10.334;2022-11-18T06:59:29;14.05;;;9.95;;
26474;SDS011;14161;52.270;10.334;2022-11-18T07:01:55;18.17;;;11.57;;
26474;SDS011;14161;52.270;10.334;2022-11-18T07:04:21;15.75;;;10.70;;
26474;SDS011;14161;52.270;10.334;2022-11-18T07:06:46;16.40;;;10.50;;
26474;SDS011;14161;52.270;10.334;2022-11-18T07:09:12;14.45;;;9.43;;
26474;SDS011;14161;52.270;10.334;2022-11-18T07:11:37;14.07;;;9.77;;
26474;SDS011;14161;52.270;10.334;2022-11-18T07:14:05;18.50;;;12.07;;
26474;SDS011;14161;52.270;10.334;2022-11-18T07:16:32;21.90;;;13.80;;
26474;SDS011;14161;52.270;10.334;2022-11-18T07:18:58;20.52;;;13.52;;
26474;SDS011;14161;52.270;10.334;2022-11-18T07:21:27;19.88;;;13.48;;
26474;SDS011;14161;52.270;10.334;2022-11-18T07:23:54;20.20;;;13.68;;
26474;SDS011;14161;52.270;10.334;2022-11-18T07:26:20;24.17;;;13.80;;
26474;SDS011;14161;52.270;10.334;2022-11-18T07:28:46;20.48;;;12.65;;
26474;SDS011;14161;52.270;10.334;2022-11-18T07:31:19;16.10;;;10.77;;
26474;SDS011;14161;52.270;10.334;2022-11-18T07:33:45;18.23;;;12.05;;
26474;SDS011;14161;52.270;10.334;2022-11-18T07:36:18;21.77;;;12.48;;
26474;SDS011;14161;52.270;10.334;2022-11-18T07:38:45;19.98;;;12.93;;
26474;SDS011;14161;52.270;10.334;2022-11-18T07:41:14;21.23;;;13.65;;
26474;SDS011;14161;52.270;10.334;2022-11-18T07:43:41;18.42;;;11.88;;
26474;SDS011;14161;52.270;10.334;2022-11-18T07:48:46;18.45;;;10.77;;
26474;SDS011;14161;52.270;10.334;2022-11-18T07:51:13;16.40;;;10.68;;
26474;SDS011;14161;52.270;10.334;2022-11-18T07:53:39;16.23;;;11.07;;
26474;SDS011;14161;52.270;10.334;2022-11-18T07:56:06;18.88;;;11.27;;
26474;SDS011;14161;52.270;10.334;2022-11-18T07:58:32;14.27;;;9.82;;
26474;SDS011;14161;52.270;10.334;2022-11-18T08:00:57;15.65;;;10.48;;
26474;SDS011;14161;52.270;10.334;2022-11-18T08:03:26;19.33;;;11.27;;
26474;SDS011;14161;52.270;10.334;2022-11-18T08:05:52;18.77;;;11.98;;
26474;SDS011;14161;52.270;10.334;2022-11-18T08:08:23;18.60;;;12.88;;
26474;SDS011;14161;52.270;10.334;2022-11-18T08:10:49;19.85;;;11.18;;
26474;SDS011;14161;52.270;10.334;2022-11-18T08:13:14;16.80;;;10.70;;
26474;SDS011;14161;52.270;10.334;2022-11-18T08:15:40;16.23;;;10.73;;
26474;SDS011;14161;52.270;10.334;2022-11-18T08:18:06;16.73;;;11.60;;
26474;SDS011;14161;52.270;10.334;2022-11-18T08:20:35;18.95;;;12.65;;
26474;SDS011;14161;52.270;10.334;2022-11-18T08:23:00;21.90;;;14.40;;
26474;SDS011;14161;52.270;10.334;2022-11-18T08:25:26;24.98;;;15.65;;
26474;SDS011;14161;52.270;10.334;2022-11-18T08:27:51;18.45;;;13.35;;
26474;SDS011;14161;52.270;10.334;2022-11-18T08:30:17;18.75;;;11.75;;
26474;SDS011;14161;52.270;10.334;2022-11-18T08:32:45;18.10;;;11.10;;
26474;SDS011;14161;52.270;10.334;2022-11-18T08:35:11;18.23;;;12.55;;
26474;SDS011;14161;52.270;10.334;2022-11-18T08:37:37;19.52;;;12.32;;
26474;SDS011;14161;52.270;10.334;2022-11-18T08:40:02;18.27;;;11.80;;
26474;SDS011;14161;52.270;10.334;2022-11-18T08:42:28;19.65;;;12.90;;
26474;SDS011;14161;52.270;10.334;2022-11-18T08:44:54;19.48;;;13.52;;
26474;SDS011;14161;52.270;10.334;2022-11-18T08:47:19;21.92;;;13.45;;
26474;SDS011;14161;52.270;10.334;2022-11-18T08:49:45;21.25;;;14.52;;
26474;SDS011;14161;52.270;10.334;2022-11-18T08:52:10;20.95;;;13.80;;
26474;SDS011;14161;52.270;10.334;2022-11-18T08:54:36;16.13;;;11.52;;
26474;SDS011;14161;52.270;10.334;2022-11-18T08:57:01;19.17;;;13.25;;
26474;SDS011;14161;52.270;10.334;2022-11-18T08:59:27;25.25;;;13.65;;
26474;SDS011;14161;52.270;10.334;2022-11-18T09:01:52;18.75;;;13.20;;
26474;SDS011;14161;52.270;10.334;2022-11-18T09:04:18;19.70;;;13.18;;
26474;SDS011;14161;52.270;10.334;2022-11-18T09:06:43;20.08;;;12.98;;
26474;SDS011;14161;52.270;10.334;2022-11-18T09:09:09;17.13;;;12.27;;
26474;SDS011;14161;52.270;10.334;2022-11-18T09:11:34;22.17;;;14.48;;
26474;SDS011;14161;52.270;10.334;2022-11-18T09:14:02;18.17;;;12.55;;
26474;SDS011;14161;52.270;10.334;2022-11-18T09:16:28;14.25;;;10.10;;
26474;SDS011;14161;52.270;10.334;2022-11-18T09:18:56;13.98;;;9.32;;
26474;SDS011;14161;52.270;10.334;2022-11-18T09:21:22;17.33;;;11.88;;
26474;SDS011;14161;52.270;10.334;2022-11-18T09:23:47;15.20;;;11.00;;
26474;SDS011;14161;52.270;10.334;2022-11-18T09:26:14;19.77;;;11.73;;
26474;SDS011;14161;52.270;10.334;2022-11-18T09:28:41;13.57;;;9.80;;
26474;SDS011;14161;52.270;10.334;2022-11-18T09:31:08;15.88;;;11.82;;
26474;SDS011;14161;52.270;10.334;2022-11-18T09:33:34;13.02;;;9.63;;
26474;SDS011;14161;52.270;10.334;2022-11-18T09:36:01;13.00;;;8.30;;
26474;SDS011;14161;52.270;10.334;2022-11-18T09:38:28;14.55;;;10.98;;
26474;SDS011;14161;52.270;10.334;2022-11-18T09:46:41;14.35;;;10.25;;
26474;SDS011;14161;52.270;10.334;2022-11-18T09:49:22;14.88;;;10.43;;
26474;SDS011;14161;52.270;10.334;2022-11-18T09:54:54;15.32;;;10.60;;
26474;SDS011;14161;52.270;10.334;2022-11-18T09:57:21;18.27;;;13.10;;
26474;SDS011;14161;52.270;10.334;2022-11-18T09:59:48;15.80;;;11.25;;
26474;SDS011;14161;52.270;10.334;2022-11-18T10:04:40;18.45;;;12.38;;
26474;SDS011;14161;52.270;10.334;2022-11-18T10:07:15;15.32;;;11.75;;
26474;SDS011;14161;52.270;10.334;2022-11-18T10:09:45;16.98;;;12.30;;
26474;SDS011;14161;52.270;10.334;2022-11-18T10:19:38;20.50;;;14.45;;
26474;SDS011;14161;52.270;10.334;2022-11-18T10:22:21;20.88;;;14.75;;
26474;SDS011;14161;52.270;10.334;2022-11-18T10:24:50;18.50;;;13.45;;
26474;SDS011;14161;52.270;10.334;2022-11-18T10:27:17;19.48;;;14.38;;
26474;SDS011;14161;52.270;10.334;2022-11-18T10:29:43;23.15;;;15.20;;
26474;SDS011;14161;52.270;10.334;2022-11-18T10:32:13;17.55;;;12.95;;
26474;SDS011;14161;52.270;10.334;2022-11-18T10:34:53;20.08;;;13.82;;
26474;SDS011;14161;52.270;10.334;2022-11-18T10:39:58;20.85;;;14.55;;
26474;SDS011;14161;52.270;10.334;2022-11-18T10:42:32;20.83;;;13.45;;
26474;SDS011;14161;52.270;10.334;2022-11-18T10:48:28;20.13;;;13.45;;
26474;SDS011;14161;52.270;10.334;2022-11-18T10:50:42;17.80;;;12.10;;
26474;SDS011;14161;52.270;10.334;2022-11-18T10:56:12;17.17;;;12.75;;
26474;SDS011;14161;52.270;10.334;2022-11-18T10:58:40;16.40;;;12.00;;
26474;SDS011;14161;52.270;10.334;2022-11-18T11:06:31;18.98;;;13.30;;
26474;SDS011;14161;52.270;10.334;2022-11-18T11:09:05;20.70;;;14.90;;
26474;SDS011;14161;52.270;10.334;2022-11-18T11:11:55;20.92;;;14.98;;
26474;SDS011;14161;52.270;10.334;2022-11-18T11:14:31;18.27;;;13.30;;
26474;SDS011;14161;52.270;10.334;2022-11-18T11:22:33;15.65;;;11.68;;
26474;SDS011;14161;52.270;10.334;2022-11-18T11:24:58;17.92;;;12.30;;
26474;SDS011;14161;52.270;10.334;2022-11-18T11:30:20;15.88;;;11.98;;
26474;SDS011;14161;52.270;10.334;2022-11-18T11:32:53;16.35;;;12.25;;
26474;SDS011;14161;52.270;10.334;2022-11-18T11:35:22;15.85;;;12.20;;
26474;SDS011;14161;52.270;10.334;2022-11-18T11:37:57;17.10;;;12.88;;
26474;SDS011;14161;52.270;10.334;2022-11-18T11:40:35;16.90;;;11.90;;
26474;SDS011;14161;52.270;10.334;2022-11-18T11:46:00;16.02;;;11.63;;
26474;SDS011;14161;52.270;10.334;2022-11-18T12:04:50;17.08;;;12.20;;
26474;SDS011;14161;52.270;10.334;2022-11-18T12:07:17;16.77;;;13.00;;
26474;SDS011;14161;52.270;10.334;2022-11-18T12:12:44;16.70;;;11.45;;
26474;SDS011;14161;52.270;10.334;2022-11-18T12:25:55;16.75;;;12.73;;
26474;SDS011;14161;52.270;10.334;2022-11-18T12:30:48;16.90;;;12.02;;
26474;SDS011;14161;52.270;10.334;2022-11-18T12:33:14;15.93;;;11.80;;
26474;SDS011;14161;52.270;10.334;2022-11-18T12:35:44;15.20;;;10.82;;
26474;SDS011;14161;52.270;10.334;2022-11-18T12:38:26;15.90;;;12.13;;
26474;SDS011;14161;52.270;10.334;2022-11-18T12:40:53;15.60;;;11.50;;
26474;SDS011;14161;52.270;10.334;2022-11-18T12:46:09;15.18;;;11.35;;
26474;SDS011;14161;52.270;10.334;2022-11-18T12:51:50;14.65;;;10.50;;
26474;SDS011;14161;52.270;10.334;2022-11-18T12:54:27;18.52;;;13.63;;
26474;SDS011;14161;52.270;10.334;2022-11-18T12:56:56;16.05;;;12.27;;
26474;SDS011;14161;52.270;10.334;2022-11-18T12:59:25;14.70;;;11.18;;
26474;SDS011;14161;52.270;10.334;2022-11-18T13:02:05;14.90;;;11.57;;
26474;SDS011;14161;52.270;10.334;2022-11-18T13:04:41;15.15;;;11.32;;
26474;SDS011;14161;52.270;10.334;2022-11-18T13:07:09;15.30;;;11.65;;
26474;SDS011;14161;52.270;10.334;2022-11-18T13:09:54;13.80;;;9.93;;
26474;SDS011;14161;52.270;10.334;2022-11-18T13:12:24;14.80;;;11.48;;
26474;SDS011;14161;52.270;10.334;2022-11-18T13:14:50;14.38;;;10.80;;
26474;SDS011;14161;52.270;10.334;2022-11-18T13:20:21;12.95;;;9.30;;
26474;SDS011;14161;52.270;10.334;2022-11-18T13:22:58;14.57;;;10.80;;
26474;SDS011;14161;52.270;10.334;2022-11-18T13:25:45;14.30;;;11.20;;
26474;SDS011;14161;52.270;10.334;2022-11-18T13:30:59;16.58;;;11.90;;
26474;SDS011;14161;52.270;10.334;2022-11-18T13:33:32;21.77;;;14.70;;
26474;SDS011;14161;52.270;10.334;2022-11-18T13:35:59;19.42;;;14.73;;
26474;SDS011;14161;52.270;10.334;2022-11-18T13:38:25;17.35;;;12.88;;
26474;SDS011;14161;52.270;10.334;2022-11-18T13:40:50;20.27;;;14.68;;
26474;SDS011;14161;52.270;10.334;2022-11-18T13:43:32;15.88;;;11.68;;
26474;SDS011;14161;52.270;10.334;2022-11-18T13:46:03;16.95;;;12.38;;
26474;SDS011;14161;52.270;10.334;2022-11-18T13:48:31;17.38;;;12.85;;
26474;SDS011;14161;52.270;10.334;2022-11-18T13:50:58;18.90;;;13.88;;
26474;SDS011;14161;52.270;10.334;2022-11-18T13:56:05;21.65;;;15.18;;
26474;SDS011;14161;52.270;10.334;2022-11-18T13:58:36;22.05;;;15.20;;
26474;SDS011;14161;52.270;10.334;2022-11-18T14:01:04;19.40;;;14.98;;
26474;SDS011;14161;52.270;10.334;2022-11-18T14:06:37;23.30;;;16.98;;
26474;SDS011;14161;52.270;10.334;2022-11-18T14:11:37;26.27;;;15.35;;
26474;SDS011;14161;52.270;10.334;2022-11-18T14:14:07;19.10;;;13.93;;
26474;SDS011;14161;52.270;10.334;2022-11-18T14:16:35;24.77;;;16.88;;
26474;SDS011;14161;52.270;10.334;2022-11-18T14:19:02;20.60;;;14.95;;
26474;SDS011;14161;52.270;10.334;2022-11-18T14:21:29;23.05;;;16.45;;
26474;SDS011;14161;52.270;10.334;2022-11-18T14:23:56;23.38;;;17.55;;
26474;SDS011;14161;52.270;10.334;2022-11-18T14:26:35;25.13;;;17.95;;
26474;SDS011;14161;52.270;10.334;2022-11-18T14:29:02;25.33;;;17.25;;
26474;SDS011;14161;52.270;10.334;2022-11-18T14:32:00;22.88;;;15.70;;
26474;SDS011;14161;52.270;10.334;2022-11-18T14:34:56;25.15;;;13.63;;
26474;SDS011;14161;52.270;10.334;2022-11-18T14:37:23;24.60;;;17.13;;
26474;SDS011;14161;52.270;10.334;2022-11-18T14:39:54;25.10;;;17.83;;
26474;SDS011;14161;52.270;10.334;2022-11-18T14:42:21;22.40;;;16.27;;
26474;SDS011;14161;52.270;10.334;2022-11-18T14:44:47;21.35;;;15.93;;
26474;SDS011;14161;52.270;10.334;2022-11-18T14:47:23;27.25;;;17.83;;
26474;SDS011;14161;52.270;10.334;2022-11-18T14:49:51;22.88;;;16.05;;
26474;SDS011;14161;52.270;10.334;2022-11-18T14:52:16;24.85;;;17.92;;
26474;SDS011;14161;52.270;10.334;2022-11-18T14:54:42;27.33;;;19.40;;
26474;SDS011;14161;52.270;10.334;2022-11-18T14:57:11;24.08;;;17.88;;
26474;SDS011;14161;52.270;10.334;2022-11-18T14:59:40;22.58;;;16.33;;
26474;SDS011;14161;52.270;10.334;2022-11-18T15:02:13;22.50;;;16.50;;
26474;SDS011;14161;52.270;10.334;2022-11-18T15:04:40;23.08;;;16.45;;
26474;SDS011;14161;52.270;10.334;2022-11-18T15:07:05;23.67;;;17.02;;
26474;SDS011;14161;52.270;10.334;2022-11-18T15:09:31;24.88;;;16.98;;
26474;SDS011;14161;52.270;10.334;2022-11-18T15:11:56;24.00;;;17.02;;
26474;SDS011;14161;52.270;10.334;2022-11-18T15:14:22;25.98;;;16.92;;
26474;SDS011;14161;52.270;10.334;2022-11-18T15:16:47;25.15;;;17.55;;
26474;SDS011;14161;52.270;10.334;2022-11-18T15:19:13;27.73;;;19.20;;
26474;SDS011;14161;52.270;10.334;2022-11-18T15:21:39;26.60;;;18.77;;
26474;SDS011;14161;52.270;10.334;2022-11-18T15:24:05;22.20;;;16.08;;
26474;SDS011;14161;52.270;10.334;2022-11-18T15:26:37;23.63;;;15.45;;
26474;SDS011;14161;52.270;10.334;2022-11-18T15:29:04;23.63;;;16.10;;
26474;SDS011;14161;52.270;10.334;2022-11-18T15:31:32;21.88;;;15.90;;
26474;SDS011;14161;52.270;10.334;2022-11-18T15:33:58;22.13;;;15.68;;
26474;SDS011;14161;52.270;10.334;2022-11-18T15:36:24;20.38;;;15.10;;
26474;SDS011;14161;52.270;10.334;2022-11-18T15:38:51;19.52;;;13.95;;
26474;SDS011;14161;52.270;10.334;2022-11-18T15:41:21;18.80;;;14.02;;
26474;SDS011;14161;52.270;10.334;2022-11-18T15:43:50;17.52;;;13.05;;
26474;SDS011;14161;52.270;10.334;2022-11-18T15:46:17;19.88;;;14.30;;
26474;SDS011;14161;52.270;10.334;2022-11-18T15:48:43;20.17;;;14.15;;
26474;SDS011;14161;52.270;10.334;2022-11-18T15:51:11;21.48;;;14.80;;
26474;SDS011;14161;52.270;10.334;2022-11-18T15:53:37;19.83;;;14.25;;
26474;SDS011;14161;52.270;10.334;2022-11-18T15:59:02;18.58;;;14.07;;
26474;SDS011;14161;52.270;10.334;2022-11-18T16:01:33;17.75;;;12.70;;
26474;SDS011;14161;52.270;10.334;2022-11-18T16:03:59;16.88;;;13.10;;
26474;SDS011;14161;52.270;10.334;2022-11-18T16:06:26;15.85;;;11.98;;
26474;SDS011;14161;52.270;10.334;2022-11-18T16:08:51;17.73;;;12.80;;
26474;SDS011;14161;52.270;10.334;2022-11-18T16:11:17;15.60;;;12.10;;
26474;SDS011;14161;52.270;10.334;2022-11-18T16:14:05;16.17;;;11.93;;
26474;SDS011;14161;52.270;10.334;2022-11-18T16:16:32;15.82;;;11.88;;
26474;SDS011;14161;52.270;10.334;2022-11-18T16:19:03;16.90;;;11.50;;
26474;SDS011;14161;52.270;10.334;2022-11-18T16:21:31;15.20;;;11.20;;
26474;SDS011;14161;52.270;10.334;2022-11-18T16:23:58;16.42;;;12.13;;
26474;SDS011;14161;52.270;10.334;2022-11-18T16:26:25;32.45;;;21.00;;
26474;SDS011;14161;52.270;10.334;2022-11-18T16:28:53;26.63;;;18.65;;
26474;SDS011;14161;52.270;10.334;2022-11-18T16:31:19;19.63;;;15.05;;
26474;SDS011;14161;52.270;10.334;2022-11-18T16:36:37;15.48;;;10.95;;
26474;SDS011;14161;52.270;10.334;2022-11-18T16:39:05;14.90;;;11.25;;
26474;SDS011;14161;52.270;10.334;2022-11-18T16:41:35;16.65;;;12.02;;
26474;SDS011;14161;52.270;10.334;2022-11-18T16:44:04;14.10;;;11.02;;
26474;SDS011;14161;52.270;10.334;2022-11-18T16:46:31;14.90;;;10.90;;